Chem Altamira — D5FU2 — position and weather

sailwx.info

Track history (hours):
 
Tides and Currents Weather Stations Pressure Air Temp Water Temp Dewpoint Dewpoint Depression Visibility Wind Speed Wind Dir Waves Ship Positions

Chem Altamira

Last reported at 2017-Sep-21 20:32 UTC. Time now 2017-Sep-25 13:42 UTC.
Position N 37°45' W 029°48'.

Length 155 m; draft 10 m.

Type: Tanker. MMSI: 636016362.

Date/timePositionNaut miles runAvg speedWind from/ knotsBaromVisibWave heightAir tempDewpointWater temp
2017-Sep-21 20:32N 37°45' W 029°48'113.1
2017-Sep-21 20:30N 37°45' W 029°47'714.6
2017-Sep-21 20:00N 37°44' W 029°38'714.5
2017-Sep-21 19:30N 37°45' W 029°29'714.2
2017-Sep-21 19:00N 37°45' W 029°20'713.8
2017-Sep-21 18:30N 37°45' W 029°11'714.0
2017-Sep-21 18:00N 37°45' W 029°02'714.0
2017-Sep-21 17:30N 37°45' W 028°53'714.5
2017-Sep-21 17:00N 37°45' W 028°44'714.1
2017-Sep-21 16:30N 37°45' W 028°35'714.1
2017-Sep-21 16:00N 37°45' W 028°26'714.6
2017-Sep-21 15:30N 37°45' W 028°17'714.4
2017-Sep-21 15:01N 37°45' W 028°08'714.5
2017-Sep-21 14:30N 37°45' W 027°59'714.4
2017-Sep-21 14:00N 37°45' W 027°50'714.7
2017-Sep-21 13:31N 37°45' W 027°41'714.8
2017-Sep-21 13:00N 37°45' W 027°31'714.3
2017-Sep-21 12:30N 37°45' W 027°22'714.6
2017-Sep-21 12:00N 37°46' W 027°13'713.6
2017-Sep-21 11:31N 37°48' W 027°05'714.4
2017-Sep-21 11:00N 37°52' W 026°57'714.3
2017-Sep-21 10:30N 37°56' W 026°50'714.9
2017-Sep-21 10:01N 38°01' W 026°42'815.0
2017-Sep-21 09:30N 38°05' W 026°35'714.8
2017-Sep-21 09:00N 38°10' W 026°27'815.4
2017-Sep-21 08:30N 38°14' W 026°19'815.2
2017-Sep-21 08:01N 38°19' W 026°12'714.7
2017-Sep-21 07:30N 38°23' W 026°04'715.0
2017-Sep-21 07:00N 38°28' W 025°56'815.0
2017-Sep-21 06:30N 38°32' W 025°49'714.7
2017-Sep-21 06:00N 38°36' W 025°41'714.3
2017-Sep-21 05:30N 38°41' W 025°34'815.1
2017-Sep-21 05:00N 38°46' W 025°26'714.8
2017-Sep-21 04:30N 38°50' W 025°19'714.6
2017-Sep-21 04:00N 38°54' W 025°11'  
2017-Sep-18 04:39N 49°04' W 006°12'9313.5
2017-Sep-17 21:48N 49°48' W 004°06'615.3
2017-Sep-17 21:26N 49°49' W 003°58'715.3
2017-Sep-17 21:00N 49°51' W 003°48'815.1
2017-Sep-17 20:30N 49°53' W 003°37'714.8
2017-Sep-17 20:00N 49°55' W 003°26'814.3
2017-Sep-17 19:28N 49°57' W 003°14'613.8
2017-Sep-17 19:00N 49°59' W 003°05'713.3
2017-Sep-17 18:30N 50°00' W 002°55'3212.5
2017-Sep-17 15:55N 50°09' W 002°06'913.2
2017-Sep-17 15:14N 50°11' W 001°52'314.0
2017-Sep-17 15:00N 50°12' W 001°47'714.4
2017-Sep-17 14:31N 50°14' W 001°37'815.0
2017-Sep-17 14:00N 50°16' W 001°25'4716.4
2017-Sep-17 11:07N 50°28' W 000°14'215.7
2017-Sep-17 11:00N 50°28' W 000°11'815.5
2017-Sep-17 10:30N 50°30' E 000°01'815.3
2017-Sep-17 10:00N 50°32' E 000°12'814.9
2017-Sep-17 09:30N 50°34' E 000°24'714.4
2017-Sep-17 09:00N 50°38' E 000°33'714.1
2017-Sep-17 08:30N 50°42' E 000°43'713.9
2017-Sep-17 08:00N 50°46' E 000°52'713.8
2017-Sep-17 07:30N 50°50' E 001°00'813.9
2017-Sep-17 06:57N 50°55' E 001°10'614.5
2017-Sep-17 06:30N 50°59' E 001°18'815.6
2017-Sep-17 06:01N 51°04' E 001°27'816.7
2017-Sep-17 05:31N 51°09' E 001°38'815.6
2017-Sep-17 05:00N 51°15' E 001°46'815.3
2017-Sep-17 04:30N 51°22' E 001°52'815.3
2017-Sep-17 04:00N 51°28' E 001°58'814.9
2017-Sep-17 03:30N 51°34' E 002°06'714.6
2017-Sep-17 03:00N 51°39' E 002°14'714.3
2017-Sep-17 02:30N 51°44' E 002°22'4712.4
2017-Sep-16 22:41N 52°04' E 003°32'212.8
2017-Sep-16 22:30N 52°04' E 003°36'611.9
2017-Sep-16 22:00N 52°04' E 003°45'5 9.9
2017-Sep-16 21:30N 52°03' E 003°53'4 8.3
2017-Sep-16 21:00N 52°01' E 003°59'510.4
2017-Sep-16 20:30N 51°58' E 004°06'4 4.3
2017-Sep-16 19:41N 51°56' E 004°11'0 0.0
2017-Sep-16 19:29N 51°56' E 004°11'0 0.0
2017-Sep-16 18:53N 51°56' E 004°11'0 0.0
2017-Sep-16 18:29N 51°56' E 004°11'0 0.0
2017-Sep-16 17:59N 51°56' E 004°11'0 0.0
2017-Sep-16 17:23N 51°56' E 004°11'0 0.0
2017-Sep-16 16:59N 51°56' E 004°11'0 0.0
2017-Sep-16 16:17N 51°56' E 004°11'0 0.0
2017-Sep-16 15:59N 51°56' E 004°11'0 0.0
2017-Sep-16 15:17N 51°56' E 004°11'0 0.0
2017-Sep-16 14:59N 51°56' E 004°11'0 0.0
2017-Sep-16 14:29N 51°56' E 004°11'0 0.0
2017-Sep-16 13:47N 51°56' E 004°11'0 0.0
2017-Sep-16 13:29N 51°56' E 004°11'0 0.0
2017-Sep-16 11:41N 51°56' E 004°11'0 0.0
2017-Sep-16 11:23N 51°56' E 004°11'0 0.0
2017-Sep-16 10:35N 51°56' E 004°11'0 0.0
2017-Sep-16 10:17N 51°56' E 004°11'0 0.0
2017-Sep-16 09:47N 51°56' E 004°11'0 0.0
2017-Sep-16 08:23N 51°56' E 004°11'0 0.0
2017-Sep-16 07:59N 51°56' E 004°11'0 0.0
2017-Sep-16 07:29N 51°56' E 004°11'0 0.0
2017-Sep-16 06:59N 51°56' E 004°11'0 0.0
2017-Sep-16 06:17N 51°56' E 004°11'0 0.0
2017-Sep-16 05:59N 51°56' E 004°11'0 0.0
2017-Sep-16 05:29N 51°56' E 004°11'0 0.0
2017-Sep-16 04:59N 51°56' E 004°11'0 0.0
2017-Sep-16 04:29N 51°56' E 004°11'0 0.0
2017-Sep-16 03:59N 51°56' E 004°11'0 0.0
2017-Sep-16 03:17N 51°56' E 004°11'0 0.0
2017-Sep-16 02:59N 51°56' E 004°11'0 0.0
2017-Sep-16 02:17N 51°56' E 004°11'0 0.0
2017-Sep-16 01:59N 51°56' E 004°11'0 0.0
2017-Sep-16 01:29N 51°56' E 004°11'0 0.0
2017-Sep-16 00:59N 51°56' E 004°11'0 0.0
2017-Sep-16 00:14N 51°56' E 004°11'0 0.0
2017-Sep-15 23:59N 51°56' E 004°11'0 0.0
2017-Sep-15 23:26N 51°56' E 004°11'0 0.0
2017-Sep-15 22:56N 51°56' E 004°11'0 0.0
2017-Sep-15 22:29N 51°56' E 004°11'0 0.0
2017-Sep-15 21:59N 51°56' E 004°11'0 0.0
2017-Sep-15 21:29N 51°56' E 004°11'0 0.0
2017-Sep-15 20:44N 51°56' E 004°11'0 0.0
2017-Sep-15 20:29N 51°56' E 004°11'0 0.0
2017-Sep-15 19:56N 51°56' E 004°11'0 0.0
2017-Sep-15 19:29N 51°56' E 004°11'0 0.0
2017-Sep-15 18:47N 51°56' E 004°11'0 0.0
2017-Sep-15 18:29N 51°56' E 004°11'0 0.0
2017-Sep-15 17:59N 51°56' E 004°11'0 0.0
2017-Sep-15 17:29N 51°56' E 004°11'0 0.0
2017-Sep-15 16:56N 51°56' E 004°11'0 0.0
2017-Sep-15 16:26N 51°56' E 004°11'0 0.0
2017-Sep-15 15:56N 51°56' E 004°11'0 0.0
2017-Sep-15 15:26N 51°56' E 004°11'0 0.0
2017-Sep-15 14:59N 51°56' E 004°11'0 0.0
2017-Sep-15 14:30N 51°56' E 004°11'1 2.4
2017-Sep-15 14:00N 51°57' E 004°09'5 9.6
2017-Sep-15 13:30N 51°59' E 004°03'4 7.2
2017-Sep-15 13:00N 51°58' E 004°08'612.2
2017-Sep-15 12:30N 51°54' E 004°16'2 4.1
2017-Sep-15 12:00N 51°53' E 004°19'0 0.0
2017-Sep-15 11:30N 51°53' E 004°19'0 0.0
2017-Sep-15 11:00N 51°53' E 004°19'0 0.0
2017-Sep-15 10:24N 51°53' E 004°19'0 0.0
2017-Sep-15 10:00N 51°53' E 004°19'0 0.0
2017-Sep-15 09:27N 51°53' E 004°19'0 0.0
2017-Sep-15 09:00N 51°53' E 004°19'0 0.0
2017-Sep-15 08:24N 51°53' E 004°19'0 0.0
2017-Sep-15 07:57N 51°53' E 004°19'0 0.0
2017-Sep-15 07:24N 51°53' E 004°19'0 0.0
2017-Sep-15 06:45N 51°53' E 004°19'0 0.0
2017-Sep-15 06:27N 51°53' E 004°19'0 0.0
2017-Sep-15 06:00N 51°53' E 004°19'0 0.0
2017-Sep-15 05:30N 51°53' E 004°19'0 0.0
2017-Sep-15 05:00N 51°53' E 004°19'0 0.0
2017-Sep-15 04:27N 51°53' E 004°19'0 0.0
2017-Sep-15 03:54N 51°53' E 004°19'0 0.0
2017-Sep-15 03:30N 51°53' E 004°19'0 0.0
2017-Sep-15 02:57N 51°53' E 004°19'0 0.0
2017-Sep-15 02:30N 51°53' E 004°19'0 0.0
2017-Sep-15 02:00N 51°53' E 004°19'0 0.0
2017-Sep-15 01:30N 51°53' E 004°19'0 0.0
2017-Sep-15 01:00N 51°53' E 004°19'0 0.0
2017-Sep-15 00:27N 51°53' E 004°19'0 0.0
2017-Sep-15 00:00N 51°53' E 004°19'0 0.0
2017-Sep-14 23:30N 51°53' E 004°19'0 0.0
2017-Sep-14 22:57N 51°53' E 004°19'0 0.0
2017-Sep-14 22:21N 51°53' E 004°19'0 0.0
2017-Sep-14 21:54N 51°53' E 004°19'0 0.0
2017-Sep-14 21:30N 51°53' E 004°19'0 0.0
2017-Sep-14 21:00N 51°53' E 004°19'0 0.0
2017-Sep-14 20:30N 51°53' E 004°19'0 0.0
2017-Sep-14 20:00N 51°53' E 004°19'0 0.0
2017-Sep-14 19:30N 51°53' E 004°19'0 0.0
2017-Sep-14 19:00N 51°53' E 004°19'0 0.0
2017-Sep-14 18:24N 51°53' E 004°19'0 0.0
2017-Sep-14 18:00N 51°53' E 004°19'0 0.0
2017-Sep-14 17:21N 51°53' E 004°19'0 0.0
2017-Sep-14 17:00N 51°53' E 004°19'0 0.0
2017-Sep-14 16:30N 51°53' E 004°19'0 0.0
2017-Sep-14 15:54N 51°53' E 004°19'0 0.0
2017-Sep-14 15:30N 51°53' E 004°19'0 0.0
2017-Sep-14 15:00N 51°53' E 004°19'0 0.0
2017-Sep-14 14:30N 51°53' E 004°19'0 0.0
2017-Sep-14 14:00N 51°53' E 004°19'0 0.0
2017-Sep-14 13:30N 51°53' E 004°19'0 0.0
2017-Sep-14 13:00N 51°53' E 004°19'1 3.0
2017-Sep-14 12:30N 51°54' E 004°17'4 8.2
2017-Sep-14 12:00N 51°57' E 004°11'5 9.3
2017-Sep-14 11:30N 51°59' E 004°05'1 1.2
2017-Sep-14 11:00N 51°59' E 004°04'5 9.5
2017-Sep-14 10:30N 51°57' E 004°11'0 0.6
2017-Sep-14 10:00N 51°56' E 004°11'0 0.0
2017-Sep-14 09:30N 51°56' E 004°11'0 0.0
2017-Sep-14 09:00N 51°56' E 004°11'0 0.0
2017-Sep-14 08:30N 51°56' E 004°11'0 0.0
2017-Sep-14 08:00N 51°56' E 004°11'0 0.0
2017-Sep-14 07:30N 51°56' E 004°11'0 0.0
2017-Sep-14 07:00N 51°56' E 004°11'0 0.0
2017-Sep-14 06:30N 51°56' E 004°11'0 0.0
2017-Sep-14 06:00N 51°56' E 004°11'0 0.0
2017-Sep-14 05:30N 51°56' E 004°11'0 0.0
2017-Sep-14 05:00N 51°56' E 004°11'0 0.0
2017-Sep-14 04:30N 51°56' E 004°11'0 0.0
2017-Sep-14 04:00N 51°56' E 004°11'0 0.0
2017-Sep-14 03:30N 51°56' E 004°11'0 0.0
2017-Sep-14 03:00N 51°56' E 004°11'0 0.0
2017-Sep-14 02:30N 51°56' E 004°11'0 0.0
2017-Sep-14 02:00N 51°56' E 004°11'0 0.0
2017-Sep-14 01:30N 51°56' E 004°11'0 0.0
2017-Sep-14 01:00N 51°56' E 004°11'0 0.0
2017-Sep-14 00:30N 51°56' E 004°11'0 0.0
2017-Sep-14 00:00N 51°56' E 004°11'0 0.0
2017-Sep-13 23:30N 51°56' E 004°11'0 0.0
2017-Sep-13 23:00N 51°56' E 004°11'0 0.0
2017-Sep-13 22:30N 51°56' E 004°11'0 0.0
2017-Sep-13 22:00N 51°56' E 004°11'0 0.0
2017-Sep-13 21:30N 51°56' E 004°11'0 0.0
2017-Sep-13 21:00N 51°56' E 004°11'0 0.0
2017-Sep-13 20:30N 51°56' E 004°11'0 0.0
2017-Sep-13 20:00N 51°56' E 004°11'0 0.0
2017-Sep-13 19:30N 51°56' E 004°11'0 0.0
2017-Sep-13 19:00N 51°56' E 004°11'0 0.0
2017-Sep-13 18:30N 51°56' E 004°11'0 0.0
2017-Sep-13 18:00N 51°56' E 004°11'0 0.0
2017-Sep-13 17:30N 51°56' E 004°11'0 0.0
2017-Sep-13 17:00N 51°56' E 004°11'0 0.0
2017-Sep-13 16:30N 51°56' E 004°11'0 0.0
2017-Sep-13 15:59N 51°56' E 004°11'0 0.0
2017-Sep-13 15:30N 51°56' E 004°11'0 0.0
2017-Sep-13 15:00N 51°56' E 004°11'0 0.0
2017-Sep-13 14:30N 51°56' E 004°11'0 0.0
2017-Sep-13 14:00N 51°56' E 004°11'0 0.0
2017-Sep-13 13:30N 51°56' E 004°11'0 0.0
2017-Sep-13 13:00N 51°56' E 004°11'0 0.0
2017-Sep-13 12:30N 51°56' E 004°11'0 0.0
2017-Sep-13 12:00N 51°56' E 004°11'0 0.0
2017-Sep-13 11:30N 51°56' E 004°11'0 0.0
2017-Sep-13 11:00N 51°56' E 004°11'0 0.0
2017-Sep-13 10:30N 51°56' E 004°11'0 0.0
2017-Sep-13 10:00N 51°56' E 004°11'0 0.0
2017-Sep-13 09:30N 51°56' E 004°11'0 0.0
2017-Sep-13 09:00N 51°56' E 004°11'1 3.0
2017-Sep-13 08:30N 51°57' E 004°09'4 8.4
2017-Sep-13 08:00N 51°59' E 004°03'2 4.5
2017-Sep-13 07:30N 52°01' E 004°00'3 5.5
2017-Sep-13 07:00N 51°59' E 004°04'3 6.0
2017-Sep-13 06:30N 51°58' E 004°08'3 5.8
2017-Sep-13 06:00N 51°56' E 004°12'3 6.9
2017-Sep-13 05:30N 51°54' E 004°17'1 2.2
2017-Sep-13 05:00N 51°53' E 004°17'1 1.5
2017-Sep-13 04:30N 51°52' E 004°16'0 0.0
2017-Sep-13 04:00N 51°52' E 004°16'0 0.0
2017-Sep-13 03:30N 51°52' E 004°16'0 0.0
2017-Sep-13 03:00N 51°52' E 004°16'0 0.0
2017-Sep-13 02:30N 51°52' E 004°16'0 0.0
2017-Sep-13 02:00N 51°52' E 004°16'0 0.0
2017-Sep-13 01:30N 51°52' E 004°16'0 0.0
2017-Sep-13 01:00N 51°52' E 004°16'0 0.0
2017-Sep-13 00:30N 51°52' E 004°16'0 0.0
2017-Sep-13 00:00N 51°52' E 004°16'0 0.0
2017-Sep-12 23:30N 51°52' E 004°16'0 0.0
2017-Sep-12 23:00N 51°52' E 004°16'0 0.0
2017-Sep-12 22:30N 51°52' E 004°16'0 0.0
2017-Sep-12 22:00N 51°52' E 004°16'0 0.0
2017-Sep-12 21:30N 51°52' E 004°16'0 0.0
2017-Sep-12 21:00N 51°52' E 004°16'0 0.0
2017-Sep-12 20:29N 51°52' E 004°16'0 0.0
2017-Sep-12 20:00N 51°52' E 004°16'0 0.0
2017-Sep-12 19:30N 51°52' E 004°16'0 0.0
2017-Sep-12 19:00N 51°52' E 004°16'0 0.0
2017-Sep-12 18:30N 51°52' E 004°16'0 0.0
2017-Sep-12 18:00N 51°52' E 004°16'0 0.0
2017-Sep-12 17:30N 51°52' E 004°16'0 0.0
2017-Sep-12 17:00N 51°52' E 004°16'0 0.0
2017-Sep-12 16:30N 51°52' E 004°16'0 0.0
2017-Sep-12 16:00N 51°52' E 004°16'0 0.0
2017-Sep-12 15:30N 51°52' E 004°16'0 0.0
2017-Sep-12 15:00N 51°52' E 004°16'0 0.0
2017-Sep-12 14:30N 51°52' E 004°16'0 0.0
2017-Sep-12 14:00N 51°52' E 004°16'0 0.0
2017-Sep-12 13:30N 51°52' E 004°16'0 0.0
2017-Sep-12 13:00N 51°52' E 004°16'0 0.0
2017-Sep-12 12:30N 51°52' E 004°16'0 0.0
2017-Sep-12 12:00N 51°52' E 004°16'0 0.0
2017-Sep-12 11:30N 51°52' E 004°16'0 0.0
2017-Sep-12 11:00N 51°52' E 004°16'0 0.0
2017-Sep-12 10:30N 51°52' E 004°16'0 0.0
2017-Sep-12 10:00N 51°52' E 004°16'0 0.0
2017-Sep-12 09:30N 51°52' E 004°16'0 0.0
2017-Sep-12 09:00N 51°52' E 004°16'0 0.0
2017-Sep-12 08:30N 51°52' E 004°16'0 0.0
2017-Sep-12 08:00N 51°52' E 004°16'0 0.1
2017-Sep-12 07:30N 51°52' E 004°16'2 3.1
2017-Sep-12 07:00N 51°53' E 004°18'4 8.3
2017-Sep-12 06:30N 51°56' E 004°13'612.5
2017-Sep-12 06:01N 51°59' E 004°04'611.8
2017-Sep-12 05:31N 52°00' E 003°55'4 8.9
2017-Sep-12 05:01N 52°00' E 003°48'4 8.8
2017-Sep-12 04:30N 51°58' E 003°41'4 8.8
2017-Sep-12 04:00N 51°57' E 003°34'  
Track history (hours):
 
Tides and Currents Weather Stations Pressure Air Temp Water Temp Dewpoint Dewpoint Depression Visibility Wind Speed Wind Dir Waves Ship Positions

Chem Altamira

Last reported at 2017-Sep-21 20:32 UTC. Time now 2017-Sep-25 13:42 UTC.
Position N 37°45' W 029°48'.

Length 155 m; draft 10 m.

Type: Tanker. MMSI: 636016362.

Date/timePositionNaut miles runAvg speedWind from/ knotsBaromVisibWave heightAir tempDewpointWater temp
2017-Sep-21 20:32N 37°45' W 029°48'113.1
2017-Sep-21 20:30N 37°45' W 029°47'714.6
2017-Sep-21 20:00N 37°44' W 029°38'714.5
2017-Sep-21 19:30N 37°45' W 029°29'714.2
2017-Sep-21 19:00N 37°45' W 029°20'713.8
2017-Sep-21 18:30N 37°45' W 029°11'714.0
2017-Sep-21 18:00N 37°45' W 029°02'714.0
2017-Sep-21 17:30N 37°45' W 028°53'714.5
2017-Sep-21 17:00N 37°45' W 028°44'714.1
2017-Sep-21 16:30N 37°45' W 028°35'714.1
2017-Sep-21 16:00N 37°45' W 028°26'714.6
2017-Sep-21 15:30N 37°45' W 028°17'714.4
2017-Sep-21 15:01N 37°45' W 028°08'714.5
2017-Sep-21 14:30N 37°45' W 027°59'714.4
2017-Sep-21 14:00N 37°45' W 027°50'714.7
2017-Sep-21 13:31N 37°45' W 027°41'714.8
2017-Sep-21 13:00N 37°45' W 027°31'714.3
2017-Sep-21 12:30N 37°45' W 027°22'714.6
2017-Sep-21 12:00N 37°46' W 027°13'713.6
2017-Sep-21 11:31N 37°48' W 027°05'714.4
2017-Sep-21 11:00N 37°52' W 026°57'714.3
2017-Sep-21 10:30N 37°56' W 026°50'714.9
2017-Sep-21 10:01N 38°01' W 026°42'815.0
2017-Sep-21 09:30N 38°05' W 026°35'714.8
2017-Sep-21 09:00N 38°10' W 026°27'815.4
2017-Sep-21 08:30N 38°14' W 026°19'815.2
2017-Sep-21 08:01N 38°19' W 026°12'714.7
2017-Sep-21 07:30N 38°23' W 026°04'715.0
2017-Sep-21 07:00N 38°28' W 025°56'815.0
2017-Sep-21 06:30N 38°32' W 025°49'714.7
2017-Sep-21 06:00N 38°36' W 025°41'714.3
2017-Sep-21 05:30N 38°41' W 025°34'815.1
2017-Sep-21 05:00N 38°46' W 025°26'714.8
2017-Sep-21 04:30N 38°50' W 025°19'714.6
2017-Sep-21 04:00N 38°54' W 025°11'  
2017-Sep-18 04:39N 49°04' W 006°12'9313.5
2017-Sep-17 21:48N 49°48' W 004°06'615.3
2017-Sep-17 21:26N 49°49' W 003°58'715.3
2017-Sep-17 21:00N 49°51' W 003°48'815.1
2017-Sep-17 20:30N 49°53' W 003°37'714.8
2017-Sep-17 20:00N 49°55' W 003°26'814.3
2017-Sep-17 19:28N 49°57' W 003°14'613.8
2017-Sep-17 19:00N 49°59' W 003°05'713.3
2017-Sep-17 18:30N 50°00' W 002°55'3212.5
2017-Sep-17 15:55N 50°09' W 002°06'913.2
2017-Sep-17 15:14N 50°11' W 001°52'314.0
2017-Sep-17 15:00N 50°12' W 001°47'714.4
2017-Sep-17 14:31N 50°14' W 001°37'815.0
2017-Sep-17 14:00N 50°16' W 001°25'4716.4
2017-Sep-17 11:07N 50°28' W 000°14'215.7
2017-Sep-17 11:00N 50°28' W 000°11'815.5
2017-Sep-17 10:30N 50°30' E 000°01'815.3
2017-Sep-17 10:00N 50°32' E 000°12'814.9
2017-Sep-17 09:30N 50°34' E 000°24'714.4
2017-Sep-17 09:00N 50°38' E 000°33'714.1
2017-Sep-17 08:30N 50°42' E 000°43'713.9
2017-Sep-17 08:00N 50°46' E 000°52'713.8
2017-Sep-17 07:30N 50°50' E 001°00'813.9
2017-Sep-17 06:57N 50°55' E 001°10'614.5
2017-Sep-17 06:30N 50°59' E 001°18'815.6
2017-Sep-17 06:01N 51°04' E 001°27'816.7
2017-Sep-17 05:31N 51°09' E 001°38'815.6
2017-Sep-17 05:00N 51°15' E 001°46'815.3
2017-Sep-17 04:30N 51°22' E 001°52'815.3
2017-Sep-17 04:00N 51°28' E 001°58'814.9
2017-Sep-17 03:30N 51°34' E 002°06'714.6
2017-Sep-17 03:00N 51°39' E 002°14'714.3
2017-Sep-17 02:30N 51°44' E 002°22'4712.4
2017-Sep-16 22:41N 52°04' E 003°32'212.8
2017-Sep-16 22:30N 52°04' E 003°36'611.9
2017-Sep-16 22:00N 52°04' E 003°45'5 9.9
2017-Sep-16 21:30N 52°03' E 003°53'4 8.3
2017-Sep-16 21:00N 52°01' E 003°59'510.4
2017-Sep-16 20:30N 51°58' E 004°06'4 4.3
2017-Sep-16 19:41N 51°56' E 004°11'0 0.0
2017-Sep-16 19:29N 51°56' E 004°11'0 0.0
2017-Sep-16 18:53N 51°56' E 004°11'0 0.0
2017-Sep-16 18:29N 51°56' E 004°11'0 0.0
2017-Sep-16 17:59N 51°56' E 004°11'0 0.0
2017-Sep-16 17:23N 51°56' E 004°11'0 0.0
2017-Sep-16 16:59N 51°56' E 004°11'0 0.0
2017-Sep-16 16:17N 51°56' E 004°11'0 0.0
2017-Sep-16 15:59N 51°56' E 004°11'0 0.0
2017-Sep-16 15:17N 51°56' E 004°11'0 0.0
2017-Sep-16 14:59N 51°56' E 004°11'0 0.0
2017-Sep-16 14:29N 51°56' E 004°11'0 0.0
2017-Sep-16 13:47N 51°56' E 004°11'0 0.0
2017-Sep-16 13:29N 51°56' E 004°11'0 0.0
2017-Sep-16 11:41N 51°56' E 004°11'0 0.0
2017-Sep-16 11:23N 51°56' E 004°11'0 0.0
2017-Sep-16 10:35N 51°56' E 004°11'0 0.0
2017-Sep-16 10:17N 51°56' E 004°11'0 0.0
2017-Sep-16 09:47N 51°56' E 004°11'0 0.0
2017-Sep-16 08:23N 51°56' E 004°11'0 0.0
2017-Sep-16 07:59N 51°56' E 004°11'0 0.0
2017-Sep-16 07:29N 51°56' E 004°11'0 0.0
2017-Sep-16 06:59N 51°56' E 004°11'0 0.0
2017-Sep-16 06:17N 51°56' E 004°11'0 0.0
2017-Sep-16 05:59N 51°56' E 004°11'0 0.0
2017-Sep-16 05:29N 51°56' E 004°11'0 0.0
2017-Sep-16 04:59N 51°56' E 004°11'0 0.0
2017-Sep-16 04:29N 51°56' E 004°11'0 0.0
2017-Sep-16 03:59N 51°56' E 004°11'0 0.0
2017-Sep-16 03:17N 51°56' E 004°11'0 0.0
2017-Sep-16 02:59N 51°56' E 004°11'0 0.0
2017-Sep-16 02:17N 51°56' E 004°11'0 0.0
2017-Sep-16 01:59N 51°56' E 004°11'0 0.0
2017-Sep-16 01:29N 51°56' E 004°11'0 0.0
2017-Sep-16 00:59N 51°56' E 004°11'0 0.0
2017-Sep-16 00:14N 51°56' E 004°11'0 0.0
2017-Sep-15 23:59N 51°56' E 004°11'0 0.0
2017-Sep-15 23:26N 51°56' E 004°11'0 0.0
2017-Sep-15 22:56N 51°56' E 004°11'0 0.0
2017-Sep-15 22:29N 51°56' E 004°11'0 0.0
2017-Sep-15 21:59N 51°56' E 004°11'0 0.0
2017-Sep-15 21:29N 51°56' E 004°11'0 0.0
2017-Sep-15 20:44N 51°56' E 004°11'0 0.0
2017-Sep-15 20:29N 51°56' E 004°11'0 0.0
2017-Sep-15 19:56N 51°56' E 004°11'0 0.0
2017-Sep-15 19:29N 51°56' E 004°11'0 0.0
2017-Sep-15 18:47N 51°56' E 004°11'0 0.0
2017-Sep-15 18:29N 51°56' E 004°11'0 0.0
2017-Sep-15 17:59N 51°56' E 004°11'0 0.0
2017-Sep-15 17:29N 51°56' E 004°11'0 0.0
2017-Sep-15 16:56N 51°56' E 004°11'0 0.0
2017-Sep-15 16:26N 51°56' E 004°11'0 0.0
2017-Sep-15 15:56N 51°56' E 004°11'0 0.0
2017-Sep-15 15:26N 51°56' E 004°11'0 0.0
2017-Sep-15 14:59N 51°56' E 004°11'0 0.0
2017-Sep-15 14:30N 51°56' E 004°11'1 2.4
2017-Sep-15 14:00N 51°57' E 004°09'5 9.6
2017-Sep-15 13:30N 51°59' E 004°03'4 7.2
2017-Sep-15 13:00N 51°58' E 004°08'612.2
2017-Sep-15 12:30N 51°54' E 004°16'2 4.1
2017-Sep-15 12:00N 51°53' E 004°19'0 0.0
2017-Sep-15 11:30N 51°53' E 004°19'0 0.0
2017-Sep-15 11:00N 51°53' E 004°19'0 0.0
2017-Sep-15 10:24N 51°53' E 004°19'0 0.0
2017-Sep-15 10:00N 51°53' E 004°19'0 0.0
2017-Sep-15 09:27N 51°53' E 004°19'0 0.0
2017-Sep-15 09:00N 51°53' E 004°19'0 0.0
2017-Sep-15 08:24N 51°53' E 004°19'0 0.0
2017-Sep-15 07:57N 51°53' E 004°19'0 0.0
2017-Sep-15 07:24N 51°53' E 004°19'0 0.0
2017-Sep-15 06:45N 51°53' E 004°19'0 0.0
2017-Sep-15 06:27N 51°53' E 004°19'0 0.0
2017-Sep-15 06:00N 51°53' E 004°19'0 0.0
2017-Sep-15 05:30N 51°53' E 004°19'0 0.0
2017-Sep-15 05:00N 51°53' E 004°19'0 0.0
2017-Sep-15 04:27N 51°53' E 004°19'0 0.0
2017-Sep-15 03:54N 51°53' E 004°19'0 0.0
2017-Sep-15 03:30N 51°53' E 004°19'0 0.0
2017-Sep-15 02:57N 51°53' E 004°19'0 0.0
2017-Sep-15 02:30N 51°53' E 004°19'0 0.0
2017-Sep-15 02:00N 51°53' E 004°19'0 0.0
2017-Sep-15 01:30N 51°53' E 004°19'0 0.0
2017-Sep-15 01:00N 51°53' E 004°19'0 0.0
2017-Sep-15 00:27N 51°53' E 004°19'0 0.0
2017-Sep-15 00:00N 51°53' E 004°19'0 0.0
2017-Sep-14 23:30N 51°53' E 004°19'0 0.0
2017-Sep-14 22:57N 51°53' E 004°19'0 0.0
2017-Sep-14 22:21N 51°53' E 004°19'0 0.0
2017-Sep-14 21:54N 51°53' E 004°19'0 0.0
2017-Sep-14 21:30N 51°53' E 004°19'0 0.0
2017-Sep-14 21:00N 51°53' E 004°19'0 0.0
2017-Sep-14 20:30N 51°53' E 004°19'0 0.0
2017-Sep-14 20:00N 51°53' E 004°19'0 0.0
2017-Sep-14 19:30N 51°53' E 004°19'0 0.0
2017-Sep-14 19:00N 51°53' E 004°19'0 0.0
2017-Sep-14 18:24N 51°53' E 004°19'0 0.0
2017-Sep-14 18:00N 51°53' E 004°19'0 0.0
2017-Sep-14 17:21N 51°53' E 004°19'0 0.0
2017-Sep-14 17:00N 51°53' E 004°19'0 0.0
2017-Sep-14 16:30N 51°53' E 004°19'0 0.0
2017-Sep-14 15:54N 51°53' E 004°19'0 0.0
2017-Sep-14 15:30N 51°53' E 004°19'0 0.0
2017-Sep-14 15:00N 51°53' E 004°19'0 0.0
2017-Sep-14 14:30N 51°53' E 004°19'0 0.0
2017-Sep-14 14:00N 51°53' E 004°19'0 0.0
2017-Sep-14 13:30N 51°53' E 004°19'0 0.0
2017-Sep-14 13:00N 51°53' E 004°19'1 3.0
2017-Sep-14 12:30N 51°54' E 004°17'4 8.2
2017-Sep-14 12:00N 51°57' E 004°11'5 9.3
2017-Sep-14 11:30N 51°59' E 004°05'1 1.2
2017-Sep-14 11:00N 51°59' E 004°04'5 9.5
2017-Sep-14 10:30N 51°57' E 004°11'0 0.6
2017-Sep-14 10:00N 51°56' E 004°11'0 0.0
2017-Sep-14 09:30N 51°56' E 004°11'0 0.0
2017-Sep-14 09:00N 51°56' E 004°11'0 0.0
2017-Sep-14 08:30N 51°56' E 004°11'0 0.0
2017-Sep-14 08:00N 51°56' E 004°11'0 0.0
2017-Sep-14 07:30N 51°56' E 004°11'0 0.0
2017-Sep-14 07:00N 51°56' E 004°11'0 0.0
2017-Sep-14 06:30N 51°56' E 004°11'0 0.0
2017-Sep-14 06:00N 51°56' E 004°11'0 0.0
2017-Sep-14 05:30N 51°56' E 004°11'0 0.0
2017-Sep-14 05:00N 51°56' E 004°11'0 0.0
2017-Sep-14 04:30N 51°56' E 004°11'0 0.0
2017-Sep-14 04:00N 51°56' E 004°11'0 0.0
2017-Sep-14 03:30N 51°56' E 004°11'0 0.0
2017-Sep-14 03:00N 51°56' E 004°11'0 0.0
2017-Sep-14 02:30N 51°56' E 004°11'0 0.0
2017-Sep-14 02:00N 51°56' E 004°11'0 0.0
2017-Sep-14 01:30N 51°56' E 004°11'0 0.0
2017-Sep-14 01:00N 51°56' E 004°11'0 0.0
2017-Sep-14 00:30N 51°56' E 004°11'0 0.0
2017-Sep-14 00:00N 51°56' E 004°11'0 0.0
2017-Sep-13 23:30N 51°56' E 004°11'0 0.0
2017-Sep-13 23:00N 51°56' E 004°11'0 0.0
2017-Sep-13 22:30N 51°56' E 004°11'0 0.0
2017-Sep-13 22:00N 51°56' E 004°11'0 0.0
2017-Sep-13 21:30N 51°56' E 004°11'0 0.0
2017-Sep-13 21:00N 51°56' E 004°11'0 0.0
2017-Sep-13 20:30N 51°56' E 004°11'0 0.0
2017-Sep-13 20:00N 51°56' E 004°11'0 0.0
2017-Sep-13 19:30N 51°56' E 004°11'0 0.0
2017-Sep-13 19:00N 51°56' E 004°11'0 0.0
2017-Sep-13 18:30N 51°56' E 004°11'0 0.0
2017-Sep-13 18:00N 51°56' E 004°11'0 0.0
2017-Sep-13 17:30N 51°56' E 004°11'0 0.0
2017-Sep-13 17:00N 51°56' E 004°11'0 0.0
2017-Sep-13 16:30N 51°56' E 004°11'0 0.0
2017-Sep-13 15:59N 51°56' E 004°11'0 0.0
2017-Sep-13 15:30N 51°56' E 004°11'0 0.0
2017-Sep-13 15:00N 51°56' E 004°11'0 0.0
2017-Sep-13 14:30N 51°56' E 004°11'0 0.0
2017-Sep-13 14:00N 51°56' E 004°11'0 0.0
2017-Sep-13 13:30N 51°56' E 004°11'0 0.0
2017-Sep-13 13:00N 51°56' E 004°11'0 0.0
2017-Sep-13 12:30N 51°56' E 004°11'0 0.0
2017-Sep-13 12:00N 51°56' E 004°11'0 0.0
2017-Sep-13 11:30N 51°56' E 004°11'0 0.0
2017-Sep-13 11:00N 51°56' E 004°11'0 0.0
2017-Sep-13 10:30N 51°56' E 004°11'0 0.0
2017-Sep-13 10:00N 51°56' E 004°11'0 0.0
2017-Sep-13 09:30N 51°56' E 004°11'0 0.0
2017-Sep-13 09:00N 51°56' E 004°11'1 3.0
2017-Sep-13 08:30N 51°57' E 004°09'4 8.4
2017-Sep-13 08:00N 51°59' E 004°03'2 4.5
2017-Sep-13 07:30N 52°01' E 004°00'3 5.5
2017-Sep-13 07:00N 51°59' E 004°04'3 6.0
2017-Sep-13 06:30N 51°58' E 004°08'3 5.8
2017-Sep-13 06:00N 51°56' E 004°12'3 6.9
2017-Sep-13 05:30N 51°54' E 004°17'1 2.2
2017-Sep-13 05:00N 51°53' E 004°17'1 1.5
2017-Sep-13 04:30N 51°52' E 004°16'0 0.0
2017-Sep-13 04:00N 51°52' E 004°16'0 0.0
2017-Sep-13 03:30N 51°52' E 004°16'0 0.0
2017-Sep-13 03:00N 51°52' E 004°16'0 0.0
2017-Sep-13 02:30N 51°52' E 004°16'0 0.0
2017-Sep-13 02:00N 51°52' E 004°16'0 0.0
2017-Sep-13 01:30N 51°52' E 004°16'0 0.0
2017-Sep-13 01:00N 51°52' E 004°16'0 0.0
2017-Sep-13 00:30N 51°52' E 004°16'0 0.0
2017-Sep-13 00:00N 51°52' E 004°16'0 0.0
2017-Sep-12 23:30N 51°52' E 004°16'0 0.0
2017-Sep-12 23:00N 51°52' E 004°16'0 0.0
2017-Sep-12 22:30N 51°52' E 004°16'0 0.0
2017-Sep-12 22:00N 51°52' E 004°16'0 0.0
2017-Sep-12 21:30N 51°52' E 004°16'0 0.0
2017-Sep-12 21:00N 51°52' E 004°16'0 0.0
2017-Sep-12 20:29N 51°52' E 004°16'0 0.0
2017-Sep-12 20:00N 51°52' E 004°16'0 0.0
2017-Sep-12 19:30N 51°52' E 004°16'0 0.0
2017-Sep-12 19:00N 51°52' E 004°16'0 0.0
2017-Sep-12 18:30N 51°52' E 004°16'0 0.0
2017-Sep-12 18:00N 51°52' E 004°16'0 0.0
2017-Sep-12 17:30N 51°52' E 004°16'0 0.0
2017-Sep-12 17:00N 51°52' E 004°16'0 0.0
2017-Sep-12 16:30N 51°52' E 004°16'0 0.0
2017-Sep-12 16:00N 51°52' E 004°16'0 0.0
2017-Sep-12 15:30N 51°52' E 004°16'0 0.0
2017-Sep-12 15:00N 51°52' E 004°16'0 0.0
2017-Sep-12 14:30N 51°52' E 004°16'0 0.0
2017-Sep-12 14:00N 51°52' E 004°16'0 0.0
2017-Sep-12 13:30N 51°52' E 004°16'0 0.0
2017-Sep-12 13:00N 51°52' E 004°16'0 0.0
2017-Sep-12 12:30N 51°52' E 004°16'0 0.0
2017-Sep-12 12:00N 51°52' E 004°16'0 0.0
2017-Sep-12 11:30N 51°52' E 004°16'0 0.0
2017-Sep-12 11:00N 51°52' E 004°16'0 0.0
2017-Sep-12 10:30N 51°52' E 004°16'0 0.0
2017-Sep-12 10:00N 51°52' E 004°16'0 0.0
2017-Sep-12 09:30N 51°52' E 004°16'0 0.0
2017-Sep-12 09:00N 51°52' E 004°16'0 0.0
2017-Sep-12 08:30N 51°52' E 004°16'0 0.0
2017-Sep-12 08:00N 51°52' E 004°16'0 0.1
2017-Sep-12 07:30N 51°52' E 004°16'2 3.1
2017-Sep-12 07:00N 51°53' E 004°18'4 8.3
2017-Sep-12 06:30N 51°56' E 004°13'612.5
2017-Sep-12 06:01N 51°59' E 004°04'611.8
2017-Sep-12 05:31N 52°00' E 003°55'4 8.9
2017-Sep-12 05:01N 52°00' E 003°48'4 8.8
2017-Sep-12 04:30N 51°58' E 003°41'4 8.8
2017-Sep-12 04:00N 51°57' E 003°34'  

Dump ship's entire track history